Time;durP1;ratioP1;P1;durP2;ratioP2;P2;SDS_P1;SDS_P2;PMS_P1;PMS_P2;Temp;Humidity;BMP_temperature;BMP_pressure;BME280_temperature;BME280_humidity;BME280_pressure;Samples;Min_cycle;Max_cycle;Signal;HPM_P1;HPM_P2
2021/04/30 00:00:19;;;;;;;1.23;1.17;;;;;;;5.92;93.56;99680.53;5071308;28;20684;-74
2021/04/30 00:02:45;;;;;;;2.30;2.20;;;;;;;5.93;93.63;99674.03;5071265;28;20277;-75
2021/04/30 00:05:11;;;;;;;0.30;0.30;;;;;;;5.93;93.66;99684.88;5068964;28;20673;-75
2021/04/30 00:07:37;;;;;;;2.40;2.30;;;;;;;5.94;93.21;99677.53;5068408;28;20634;-74
2021/04/30 00:10:04;;;;;;;1.90;1.80;;;;;;;5.94;93.30;99680.25;5071383;28;20171;-75
2021/04/30 00:12:30;;;;;;;2.23;1.20;;;;;;;5.97;93.41;99682.34;5071313;28;20178;-75
2021/04/30 00:14:55;;;;;;;1.37;1.30;;;;;;;5.99;93.13;99684.75;5070812;28;20721;-74
2021/04/30 00:17:21;;;;;;;0.13;0.13;;;;;;;5.98;93.25;99675.81;5071171;28;20179;-75
2021/04/30 00:19:46;;;;;;;3.27;2.97;;;;;;;6.00;93.07;99672.81;5071138;28;20175;-75
2021/04/30 00:22:11;;;;;;;1.30;1.20;;;;;;;6.02;93.12;99676.03;5070741;28;20699;-77
2021/04/30 00:24:37;;;;;;;1.17;1.17;;;;;;;6.01;93.23;99677.13;5071052;28;20582;-74
2021/04/30 00:27:03;;;;;;;2.80;2.63;;;;;;;6.01;93.16;99671.72;5070993;28;20261;-74
2021/04/30 00:29:29;;;;;;;1.10;1.10;;;;;;;6.03;93.30;99678.44;5070973;28;20626;-76
2021/04/30 00:31:54;;;;;;;1.43;1.10;;;;;;;6.01;93.39;99683.34;5070857;28;20182;-74
2021/04/30 00:34:20;;;;;;;1.40;1.37;;;;;;;6.05;93.28;99692.50;5070973;28;20201;-74
2021/04/30 00:36:45;;;;;;;1.80;1.70;;;;;;;6.08;93.44;99700.03;5071013;28;20175;-74
2021/04/30 00:39:10;;;;;;;1.60;1.50;;;;;;;6.10;93.49;99697.03;5070911;28;20178;-74
2021/04/30 00:41:38;;;;;;;1.97;1.80;;;;;;;6.10;93.27;99694.31;5070787;28;20175;-75
2021/04/30 00:44:05;;;;;;;1.13;1.03;;;;;;;6.11;93.51;99699.44;5070821;28;20259;-74
2021/04/30 00:46:31;;;;;;;8.70;0.83;;;;;;;6.12;93.54;99697.53;5070866;28;20174;-77
2021/04/30 00:48:56;;;;;;;2.77;2.57;;;;;;;6.13;93.89;99704.56;5070835;28;20610;-74
2021/04/30 00:51:22;;;;;;;0.60;0.57;;;;;;;6.13;93.71;99710.78;5070648;28;20170;-74
2021/04/30 00:53:47;;;;;;;0.80;0.80;;;;;;;6.14;94.24;99703.47;5070734;28;20178;-74
2021/04/30 00:56:12;;;;;;;2.00;1.90;;;;;;;6.13;93.89;99710.78;5070641;28;20185;-75
2021/04/30 00:58:38;;;;;;;1.40;1.30;;;;;;;6.15;93.88;99716.72;5070566;28;20694;-74
2021/04/30 01:01:03;;;;;;;1.93;1.83;;;;;;;6.15;93.95;99714.00;5070733;28;20179;-76
2021/04/30 01:03:29;;;;;;;1.47;0.60;;;;;;;6.18;94.19;99716.09;5070517;28;20202;-75
2021/04/30 01:05:54;;;;;;;1.50;1.33;;;;;;;6.18;94.06;99718.81;5070833;28;20176;-74
2021/04/30 01:08:20;;;;;;;5.07;4.67;;;;;;;6.21;94.28;99722.84;5069304;28;20196;-74
2021/04/30 01:10:45;;;;;;;2.60;2.40;;;;;;;6.22;93.95;99722.56;5070697;28;20548;-74
2021/04/30 01:13:14;;;;;;;3.83;2.53;;;;;;;6.25;94.07;99730.09;5070848;28;20575;-74
2021/04/30 01:15:40;;;;;;;1.20;1.20;;;;;;;6.27;94.28;99729.78;5070717;28;20198;-75
2021/04/30 01:18:05;;;;;;;1.70;1.47;;;;;;;6.29;94.00;99743.06;5070499;28;20626;-74
2021/04/30 01:20:31;;;;;;;0.37;0.37;;;;;;;6.29;94.00;99738.44;5070402;28;20589;-75
2021/04/30 01:22:56;;;;;;;0.97;0.93;;;;;;;6.30;94.13;99742.75;5070406;28;20336;-74
2021/04/30 01:25:24;;;;;;;0.53;0.53;;;;;;;6.32;94.56;99750.59;5071577;28;20186;-75
2021/04/30 01:27:50;;;;;;;1.97;1.87;;;;;;;6.32;94.68;99753.28;5074437;28;20171;-75
2021/04/30 01:30:22;;;;;;;0.70;0.70;;;;;;;6.35;94.72;99748.06;5072904;28;20529;-76
2021/04/30 01:32:48;;;;;;;1.77;1.67;;;;;;;6.36;94.81;99752.38;5074230;28;20220;-74
2021/04/30 01:35:22;;;;;;;1.17;0.93;;;;;;;6.35;94.71;99761.63;5074260;28;20691;-75
2021/04/30 01:37:52;;;;;;;0.73;0.37;;;;;;;6.32;95.17;99762.22;5074382;28;20178;-75
2021/04/30 01:40:20;;;;;;;1.03;0.97;;;;;;;6.33;95.62;99763.03;5074051;28;20185;-75
2021/04/30 01:42:58;;;;;;;2.37;2.27;;;;;;;6.31;95.99;99754.41;5073983;28;20251;-74
2021/04/30 01:45:23;;;;;;;4.07;3.77;;;;;;;6.30;96.52;99764.44;5074140;28;20273;-76
2021/04/30 01:47:49;;;;;;;3.13;2.93;;;;;;;6.29;97.16;99760.13;5073853;28;20261;-75
2021/04/30 01:50:14;;;;;;;1.63;1.53;;;;;;;6.29;97.38;99772.88;5073987;28;20703;-75
2021/04/30 01:52:39;;;;;;;4.00;2.83;;;;;;;6.31;97.63;99770.69;5073881;28;20232;-76
2021/04/30 01:55:05;;;;;;;2.30;2.10;;;;;;;6.30;97.73;99763.66;5074313;28;20554;-77
2021/04/30 01:57:31;;;;;;;4.73;1.80;;;;;;;6.30;97.55;99778.00;5073537;28;20696;-75
2021/04/30 01:59:56;;;;;;;3.70;3.47;;;;;;;6.30;98.20;99775.28;5074118;28;20174;-77
2021/04/30 02:02:21;;;;;;;5.30;2.33;;;;;;;6.30;97.98;99783.44;5073326;28;20175;-77
2021/04/30 02:04:46;;;;;;;2.93;2.73;;;;;;;6.31;98.14;99776.91;5073769;28;20525;-75
2021/04/30 02:07:12;;;;;;;0.80;0.80;;;;;;;6.32;98.48;99783.94;5073611;28;20182;-81
2021/04/30 02:09:38;;;;;;;1.63;0.53;;;;;;;6.32;98.35;99785.84;5074039;28;20175;-76
2021/04/30 02:12:04;;;;;;;2.87;2.27;;;;;;;6.31;98.58;99793.19;5072302;28;20523;-78
2021/04/30 02:14:29;;;;;;;4.07;3.83;;;;;;;6.30;98.65;99794.28;5073679;28;20185;-76
2021/04/30 02:16:55;;;;;;;1.10;1.07;;;;;;;6.30;98.85;99798.91;5073448;28;20175;-75
2021/04/30 02:19:20;;;;;;;1.00;0.87;;;;;;;6.32;98.97;99802.94;5073384;28;20190;-75
2021/04/30 02:21:45;;;;;;;0.80;0.80;;;;;;;6.30;99.08;99801.63;5073352;28;20185;-75
2021/04/30 02:24:11;;;;;;;1.27;1.13;;;;;;;6.31;99.14;99809.47;5071853;28;20301;-75
2021/04/30 02:26:36;;;;;;;3.77;3.57;;;;;;;6.34;99.36;99808.84;5073269;28;20174;-78
2021/04/30 02:29:02;;;;;;;3.20;2.23;;;;;;;6.35;98.90;99818.59;5073405;28;20178;-76
2021/04/30 02:31:27;;;;;;;2.27;2.17;;;;;;;6.37;99.23;99815.63;5073203;28;20224;-76
2021/04/30 02:33:52;;;;;;;2.47;2.33;;;;;;;6.37;98.98;99810.19;5073051;28;20183;-75
2021/04/30 02:36:17;;;;;;;3.87;3.60;;;;;;;6.39;99.09;99816.13;5073312;28;20208;-75
2021/04/30 02:38:43;;;;;;;3.67;3.23;;;;;;;6.40;98.60;99815.81;5073253;28;20320;-76
2021/04/30 02:41:08;;;;;;;0.83;0.77;;;;;;;6.41;98.77;99822.84;5072958;28;20185;-75
2021/04/30 02:43:34;;;;;;;1.90;1.20;;;;;;;6.40;98.69;99815.81;5072874;28;20206;-74
2021/04/30 02:46:01;;;;;;;5.17;1.20;;;;;;;6.40;98.75;99812.28;5073012;28;20166;-74
2021/04/30 02:48:35;;;;;;;2.53;2.20;;;;;;;6.43;98.83;99827.97;5072759;28;20224;-74
2021/04/30 02:51:04;;;;;;;4.43;4.13;;;;;;;6.43;98.83;99820.63;5072979;28;20163;-75
2021/04/30 02:53:29;;;;;;;2.43;2.27;;;;;;;6.46;98.81;99819.22;5072739;28;20175;-74
2021/04/30 02:55:55;;;;;;;4.40;4.10;;;;;;;6.49;98.60;99818.63;5072854;28;20174;-75
2021/04/30 02:58:20;;;;;;;4.33;3.93;;;;;;;6.50;98.63;99829.19;5072704;28;20175;-74
2021/04/30 03:00:46;;;;;;;5.57;5.10;;;;;;;6.53;98.39;99831.31;5072552;28;20614;-75
2021/04/30 03:03:11;;;;;;;3.70;3.40;;;;;;;6.55;98.29;99828.31;5072449;28;20232;-74
2021/04/30 03:05:37;;;;;;;1.47;1.47;;;;;;;6.55;98.38;99831.00;5072525;28;20231;-75
2021/04/30 03:08:02;;;;;;;7.33;6.57;;;;;;;6.55;98.51;99837.25;5072693;28;20178;-75
2021/04/30 03:10:28;;;;;;;6.47;5.87;;;;;;;6.60;98.58;99840.97;5072265;28;20175;-77
2021/04/30 03:12:53;;;;;;;5.80;5.30;;;;;;;6.65;98.50;99846.28;5072337;28;20265;-75
2021/04/30 03:15:19;;;;;;;9.30;8.37;;;;;;;6.67;98.46;99847.63;5074613;28;20178;-76
2021/04/30 03:17:46;;;;;;;7.47;6.80;;;;;;;6.71;98.37;99845.91;5075095;28;20178;-74
2021/04/30 03:20:12;;;;;;;8.57;7.83;;;;;;;6.74;98.07;99847.22;5073089;28;20175;-74
2021/04/30 03:22:38;;;;;;;8.47;7.67;;;;;;;6.79;98.06;99852.53;5072028;28;20729;-75
2021/04/30 03:25:05;;;;;;;7.37;6.57;;;;;;;6.78;97.75;99848.22;5072156;28;20258;-74
2021/04/30 03:27:30;;;;;;;11.60;7.70;;;;;;;6.81;97.73;99851.16;5071890;28;20622;-74
2021/04/30 03:29:56;;;;;;;8.20;7.57;;;;;;;6.82;97.29;99863.63;5070516;28;20182;-74
2021/04/30 03:32:22;;;;;;;7.17;6.57;;;;;;;6.80;97.12;99865.03;5071892;28;20174;-74
2021/04/30 03:34:48;;;;;;;8.47;7.77;;;;;;;6.79;96.88;99866.91;5071627;28;20167;-76
2021/04/30 03:37:13;;;;;;;7.97;7.23;;;;;;;6.78;96.87;99872.66;5071667;28;20185;-74
2021/04/30 03:39:38;;;;;;;5.30;4.90;;;;;;;6.76;96.39;99869.44;5071695;28;20634;-75
2021/04/30 03:42:04;;;;;;;9.03;8.23;;;;;;;6.77;96.43;99871.84;5071600;28;20232;-76
2021/04/30 03:44:29;;;;;;;8.07;7.30;;;;;;;6.80;96.20;99875.88;5071517;28;20206;-74
2021/04/30 03:46:55;;;;;;;8.87;8.07;;;;;;;6.78;96.22;99867.22;5071589;28;20281;-74
2021/04/30 03:49:20;;;;;;;7.23;6.60;;;;;;;6.77;96.17;99882.69;5069397;28;20182;-75
2021/04/30 03:51:45;;;;;;;7.60;6.90;;;;;;;6.77;96.21;99877.28;5071445;28;20542;-74
2021/04/30 03:54:11;;;;;;;8.27;7.57;;;;;;;6.76;96.33;99877.56;5071519;28;20186;-76
2021/04/30 03:56:36;;;;;;;7.83;7.13;;;;;;;6.75;96.50;99884.09;5071507;28;20235;-76
2021/04/30 03:59:02;;;;;;;8.50;7.70;;;;;;;6.74;96.45;99886.03;5071093;28;20174;-75
2021/04/30 04:01:27;;;;;;;8.13;7.40;;;;;;;6.76;96.61;99883.00;5071170;28;20179;-74
2021/04/30 04:03:54;;;;;;;8.17;7.43;;;;;;;6.81;96.54;99877.50;5071071;28;20236;-74
2021/04/30 04:06:20;;;;;;;7.77;7.00;;;;;;;6.78;96.76;99883.50;5071289;28;20174;-75
2021/04/30 04:08:45;;;;;;;9.20;7.40;;;;;;;6.78;97.02;99887.03;5069900;28;20183;-75
2021/04/30 04:11:10;;;;;;;7.43;6.73;;;;;;;6.76;96.90;99886.53;5071147;28;20538;-76
2021/04/30 04:13:36;;;;;;;8.00;7.20;;;;;;;6.75;96.95;99895.78;5071382;28;20202;-74
2021/04/30 04:16:03;;;;;;;8.57;7.93;;;;;;;6.75;97.56;99903.09;5071122;28;20170;-75
2021/04/30 04:18:29;;;;;;;7.33;6.73;;;;;;;6.73;97.46;99905.31;5069739;28;20170;-74
2021/04/30 04:20:55;;;;;;;9.37;6.87;;;;;;;6.71;97.69;99911.06;5070982;28;20216;-74
2021/04/30 04:23:21;;;;;;;6.60;6.00;;;;;;;6.68;97.77;99916.28;5070743;28;20186;-74
2021/04/30 04:25:46;;;;;;;8.50;7.60;;;;;;;6.65;97.67;99916.84;5070989;28;20181;-74
2021/04/30 04:28:12;;;;;;;7.50;6.80;;;;;;;6.63;97.93;99921.78;5069685;28;20220;-74
2021/04/30 04:30:38;;;;;;;9.20;8.00;;;;;;;6.62;97.65;99923.69;5070654;28;20223;-74
2021/04/30 04:33:03;;;;;;;10.40;7.90;;;;;;;6.63;97.69;99921.78;5069463;28;20179;-74
2021/04/30 04:35:29;;;;;;;10.37;8.10;;;;;;;6.66;97.70;99927.44;5071129;28;20303;-75
2021/04/30 04:37:54;;;;;;;8.20;7.50;;;;;;;6.68;97.88;99927.13;5070806;28;20186;-76
2021/04/30 04:40:20;;;;;;;10.60;9.50;;;;;;;6.69;97.99;99928.75;5070834;28;20176;-75
2021/04/30 04:42:46;;;;;;;7.30;6.67;;;;;;;6.67;97.83;99933.66;5070630;28;20186;-74
2021/04/30 04:45:13;;;;;;;8.50;7.80;;;;;;;6.69;97.78;99934.19;5070645;28;20179;-75
2021/04/30 04:47:39;;;;;;;10.03;7.13;;;;;;;6.72;98.09;99949.88;5070549;28;20630;-74
2021/04/30 04:50:05;;;;;;;10.27;8.57;;;;;;;6.70;97.84;99947.44;5070700;28;20193;-74
2021/04/30 04:52:30;;;;;;;7.73;7.03;;;;;;;6.72;97.93;99955.28;5070604;28;20176;-74
2021/04/30 04:54:56;;;;;;;8.03;7.37;;;;;;;6.72;97.55;99949.88;5070551;28;20170;-76
2021/04/30 04:57:21;;;;;;;6.97;6.27;;;;;;;6.70;97.35;99954.78;5070358;28;20636;-74
2021/04/30 04:59:46;;;;;;;8.97;8.07;;;;;;;6.68;97.73;99965.16;5069370;28;20633;-76
2021/04/30 05:02:12;;;;;;;8.97;8.13;;;;;;;6.67;97.64;99952.66;5074609;28;20232;-77
2021/04/30 05:04:37;;;;;;;13.53;11.07;;;;;;;6.72;98.03;99966.97;5074554;28;20208;-74
2021/04/30 05:07:02;;;;;;;9.83;8.33;;;;;;;6.71;98.12;99969.97;5074642;28;20261;-75
2021/04/30 05:09:28;;;;;;;8.60;7.80;;;;;;;6.70;98.21;99968.34;5074649;28;20182;-74
2021/04/30 05:11:54;;;;;;;8.60;7.53;;;;;;;6.68;98.27;99979.53;5073179;28;20193;-73
2021/04/30 05:14:20;;;;;;;8.93;8.03;;;;;;;6.68;98.05;99976.81;5074589;28;20257;-77
2021/04/30 05:16:46;;;;;;;8.40;7.60;;;;;;;6.67;98.07;99990.69;5074408;28;20217;-74
2021/04/30 05:19:11;;;;;;;9.30;7.33;;;;;;;6.69;98.01;99988.47;5074439;28;20202;-75
2021/04/30 05:21:39;;;;;;;6.70;6.17;;;;;;;6.68;97.73;99987.66;5074165;28;20545;-75
2021/04/30 05:24:05;;;;;;;8.53;7.73;;;;;;;6.68;97.52;99997.72;5074138;28;20268;-77
2021/04/30 05:26:31;;;;;;;9.93;9.03;;;;;;;6.70;97.14;99998.22;5074055;28;20689;-76
2021/04/30 05:28:57;;;;;;;8.70;7.83;;;;;;;6.74;97.01;99999.22;5074276;28;20170;-74
2021/04/30 05:31:23;;;;;;;9.67;8.77;;;;;;;6.75;97.48;99998.13;5074219;28;20296;-74
2021/04/30 05:33:48;;;;;;;10.30;9.20;;;;;;;6.75;96.73;100004.38;5074300;28;20217;-75
2021/04/30 05:36:14;;;;;;;9.87;8.87;;;;;;;6.74;96.91;99999.22;5074072;28;20188;-75
2021/04/30 05:38:39;;;;;;;10.80;9.77;;;;;;;6.78;96.54;99997.53;5073934;28;20174;-75
2021/04/30 05:41:04;;;;;;;10.10;9.30;;;;;;;6.80;96.48;100001.59;5073724;28;20181;-74
2021/04/30 05:43:30;;;;;;;9.83;8.83;;;;;;;6.82;96.33;100010.22;5073649;28;20206;-75
2021/04/30 05:45:55;;;;;;;9.30;7.47;;;;;;;6.85;96.39;100006.09;5073860;28;20270;-74
2021/04/30 05:48:20;;;;;;;9.00;8.13;;;;;;;6.86;96.16;100005.81;5073787;28;20533;-75
2021/04/30 05:50:46;;;;;;;9.13;8.10;;;;;;;6.91;95.82;100010.34;5073939;28;20257;-75
2021/04/30 05:53:11;;;;;;;9.27;8.23;;;;;;;6.95;96.00;100014.09;5072254;28;20695;-76
2021/04/30 05:55:36;;;;;;;9.57;8.30;;;;;;;6.95;95.56;100018.72;5073541;28;20632;-74
2021/04/30 05:58:02;;;;;;;9.10;7.63;;;;;;;6.96;95.43;100014.91;5073627;28;20174;-75
2021/04/30 06:00:28;;;;;;;10.43;9.53;;;;;;;6.96;95.30;100026.56;5073803;28;20170;-74
2021/04/30 06:02:53;;;;;;;9.50;8.50;;;;;;;6.98;95.55;100034.41;5073428;28;20251;-75
2021/04/30 06:05:18;;;;;;;9.40;8.03;;;;;;;7.00;95.21;100046.59;5073596;28;20194;-75
2021/04/30 06:07:44;;;;;;;7.33;6.63;;;;;;;6.99;95.32;100044.97;5073279;28;20662;-74
2021/04/30 06:10:09;;;;;;;10.97;8.23;;;;;;;6.98;94.74;100054.22;5073638;28;20258;-75
2021/04/30 06:12:35;;;;;;;9.80;8.87;;;;;;;6.99;94.64;100047.69;5072641;28;20274;-74
2021/04/30 06:15:02;;;;;;;9.60;8.57;;;;;;;7.05;94.95;100042.97;5073247;28;20652;-75
2021/04/30 06:17:27;;;;;;;9.20;8.30;;;;;;;7.06;94.72;100037.22;5073318;28;20175;-75
2021/04/30 06:19:52;;;;;;;9.17;8.27;;;;;;;7.10;95.03;100038.28;5073245;28;20215;-74
2021/04/30 06:22:18;;;;;;;9.37;8.47;;;;;;;7.09;94.39;100038.56;5072917;28;20189;-77
2021/04/30 06:24:43;;;;;;;9.90;7.27;;;;;;;7.13;94.43;100031.44;5072990;28;20323;-76
2021/04/30 06:27:08;;;;;;;8.50;7.80;;;;;;;7.15;94.00;100027.31;5073130;28;20170;-79
2021/04/30 06:29:34;;;;;;;10.17;9.17;;;;;;;7.18;94.48;100030.53;5072960;28;20175;-75
2021/04/30 06:31:59;;;;;;;10.33;9.43;;;;;;;7.22;94.17;100037.78;5072805;28;20185;-75
2021/04/30 06:34:25;;;;;;;9.47;8.60;;;;;;;7.25;94.14;100041.84;5072885;28;20178;-78
2021/04/30 06:36:54;;;;;;;10.57;9.53;;;;;;;7.29;94.81;100045.56;5072667;28;20175;-75
2021/04/30 06:39:21;;;;;;;10.43;9.43;;;;;;;7.27;95.00;100054.00;5072854;28;20257;-78
2021/04/30 06:41:46;;;;;;;7.87;7.17;;;;;;;7.26;94.50;100057.81;5072879;28;20460;-76
2021/04/30 06:44:12;;;;;;;8.43;7.63;;;;;;;7.29;94.72;100070.81;5072857;28;20248;-76
2021/04/30 06:46:37;;;;;;;8.77;7.90;;;;;;;7.30;94.86;100068.91;5072647;28;20171;-79
2021/04/30 06:49:03;;;;;;;10.07;9.13;;;;;;;7.28;94.35;100071.13;5072599;28;20665;-81
2021/04/30 06:51:28;;;;;;;10.87;9.70;;;;;;;7.31;94.73;100068.59;5072598;28;20254;-75
2021/04/30 06:53:54;;;;;;;7.63;6.97;;;;;;;7.29;94.36;100061.84;5072511;28;20209;-76
2021/04/30 06:56:19;;;;;;;9.67;8.87;;;;;;;7.29;93.72;100064.56;5072366;28;20167;-75
2021/04/30 06:58:44;;;;;;;9.30;8.53;;;;;;;7.29;93.76;100064.56;5072269;28;20265;-76
2021/04/30 07:01:11;;;;;;;9.00;8.10;;;;;;;7.31;92.99;100062.34;5072385;28;20182;-75
2021/04/30 07:03:37;;;;;;;9.40;8.50;;;;;;;7.38;93.82;100060.88;5072052;28;20202;-77
2021/04/30 07:06:03;;;;;;;10.33;9.33;;;;;;;7.41;93.27;100059.47;5072415;28;20244;-75
2021/04/30 07:08:28;;;;;;;10.80;9.63;;;;;;;7.45;93.04;100060.47;5072247;28;20177;-75
2021/04/30 07:10:53;;;;;;;11.47;9.17;;;;;;;7.45;92.81;100055.03;5072127;28;20178;-75
2021/04/30 07:13:19;;;;;;;11.27;10.23;;;;;;;7.47;92.57;100060.97;5072042;28;20175;-74
2021/04/30 07:15:44;;;;;;;10.23;9.23;;;;;;;7.55;92.31;100057.56;5072019;28;20183;-75
2021/04/30 07:18:10;;;;;;;13.00;11.57;;;;;;;7.58;92.26;100062.41;5072114;28;20200;-75
2021/04/30 07:20:35;;;;;;;9.97;9.07;;;;;;;7.66;91.54;100071.75;5068178;28;20187;-79
2021/04/30 07:23:02;;;;;;;12.03;10.93;;;;;;;7.78;91.84;100072.06;5070679;28;20650;-75
2021/04/30 07:25:28;;;;;;;10.67;9.80;;;;;;;7.88;91.17;100073.78;5072086;28;20662;-78
2021/04/30 07:27:53;;;;;;;11.27;10.27;;;;;;;7.88;90.15;100071.06;5071069;28;20247;-75
2021/04/30 07:30:19;;;;;;;10.30;9.30;;;;;;;7.86;89.89;100079.53;5070429;28;20633;-77
2021/04/30 07:32:44;;;;;;;11.37;10.37;;;;;;;7.83;89.63;100085.59;5071393;28;20186;-76
2021/04/30 07:35:10;;;;;;;10.40;9.60;;;;;;;7.89;90.22;100083.56;5071652;28;20633;-74
2021/04/30 07:37:37;;;;;;;10.73;9.73;;;;;;;7.86;89.62;100081.47;5072036;28;20665;-76
2021/04/30 07:40:05;;;;;;;12.23;10.77;;;;;;;7.89;89.49;100089.81;5071994;28;20170;-77
2021/04/30 07:42:30;;;;;;;13.73;12.33;;;;;;;7.91;89.88;100084.06;5071445;28;20181;-76
2021/04/30 07:44:55;;;;;;;16.13;12.20;;;;;;;7.98;90.23;100090.72;5071537;28;20178;-79
2021/04/30 07:47:20;;;;;;;10.13;9.10;;;;;;;8.02;88.87;100080.84;5071294;28;20232;-75
2021/04/30 07:49:46;;;;;;;12.00;10.60;;;;;;;8.04;88.90;100088.69;5071496;28;20521;-77
2021/04/30 07:52:11;;;;;;;11.50;10.40;;;;;;;8.19;88.95;100095.75;5071318;28;20170;-76
2021/04/30 07:54:36;;;;;;;13.00;11.80;;;;;;;8.34;89.25;100082.66;5071434;28;20179;-77
2021/04/30 07:57:04;;;;;;;11.63;10.53;;;;;;;8.31;87.91;100087.88;5069982;28;20198;-76
2021/04/30 07:59:30;;;;;;;12.27;11.17;;;;;;;7.87;88.31;100099.38;5071077;28;20171;-76
2021/04/30 08:01:55;;;;;;;12.57;11.33;;;;;;;8.09;89.13;100090.50;5071215;28;20224;-76
2021/04/30 08:04:21;;;;;;;11.37;10.17;;;;;;;8.29;88.17;100096.34;5071215;28;20554;-76
2021/04/30 08:06:46;;;;;;;11.40;10.40;;;;;;;8.34;87.77;100090.81;5071324;28;20166;-75
2021/04/30 08:09:12;;;;;;;12.67;11.23;;;;;;;8.12;86.94;100085.28;5071229;28;20543;-77
2021/04/30 08:11:37;;;;;;;11.73;10.63;;;;;;;8.39;87.38;100098.09;5071062;28;20208;-78
2021/04/30 08:14:06;;;;;;;10.87;9.83;;;;;;;8.61;86.69;100102.75;5071078;28;20175;-76
2021/04/30 08:16:32;;;;;;;11.20;10.20;;;;;;;8.70;86.90;100111.03;5071003;28;20327;-77
2021/04/30 08:18:57;;;;;;;11.90;10.73;;;;;;;8.82;86.15;100108.53;5070993;28;20638;-75
2021/04/30 08:21:22;;;;;;;11.33;10.27;;;;;;;8.67;85.77;100112.41;5071286;28;20174;-77
2021/04/30 08:23:48;;;;;;;11.47;10.57;;;;;;;8.81;85.03;100113.19;5070895;28;20198;-76
2021/04/30 08:26:13;;;;;;;11.40;10.40;;;;;;;8.91;85.22;100123.03;5070968;28;20171;-75
2021/04/30 08:28:38;;;;;;;11.20;10.23;;;;;;;8.91;84.77;100121.13;5070963;28;20174;-75
2021/04/30 08:31:04;;;;;;;10.87;9.87;;;;;;;9.05;84.37;100117.53;5070840;28;20175;-77
2021/04/30 08:33:29;;;;;;;11.40;10.37;;;;;;;9.07;83.22;100118.84;5070570;28;20265;-73
2021/04/30 08:35:55;;;;;;;11.60;10.60;;;;;;;8.78;82.25;100121.16;5070731;28;20255;-76
2021/04/30 08:38:20;;;;;;;10.63;9.67;;;;;;;8.57;83.94;100124.34;5069983;28;20167;-75
2021/04/30 08:40:47;;;;;;;11.07;10.07;;;;;;;8.64;84.09;100126.66;5068539;28;20190;-76
2021/04/30 08:43:16;;;;;;;12.17;11.10;;;;;;;8.99;84.06;100130.50;5071172;28;20255;-78
2021/04/30 08:45:41;;;;;;;12.53;11.37;;;;;;;9.20;83.59;100136.25;5070697;28;20171;-74
2021/04/30 08:48:14;;;;;;;11.10;10.10;;;;;;;9.28;82.12;100124.63;5070604;28;20190;-74
2021/04/30 08:50:44;;;;;;;10.87;9.87;;;;;;;9.22;82.61;100137.56;5070660;28;20171;-75
2021/04/30 08:53:10;;;;;;;9.73;8.83;;;;;;;9.47;81.20;100132.59;5070819;28;20174;-75
2021/04/30 08:55:36;;;;;;;9.50;8.53;;;;;;;9.52;79.62;100140.63;5070910;28;20593;-76
2021/04/30 08:58:04;;;;;;;8.97;8.17;;;;;;;9.60;79.53;100141.81;5070755;28;20257;-75
2021/04/30 09:00:30;;;;;;;10.63;9.73;;;;;;;9.35;77.95;100132.34;5070937;28;20167;-74
2021/04/30 09:02:56;;;;;;;10.57;9.67;;;;;;;9.14;78.64;100142.97;5070592;28;20202;-74
2021/04/30 09:05:25;;;;;;;8.93;8.13;;;;;;;9.16;79.18;100141.53;5070286;28;20174;-74
2021/04/30 09:07:53;;;;;;;8.53;7.90;;;;;;;9.04;79.80;100143.19;5070612;28;20174;-75
2021/04/30 09:10:19;;;;;;;9.70;8.80;;;;;;;9.38;78.82;100140.69;5071173;28;20186;-74
2021/04/30 09:13:02;;;;;;;9.63;8.73;;;;;;;9.43;78.69;100135.16;5070841;28;20174;-76
2021/04/30 09:15:27;;;;;;;10.27;9.37;;;;;;;9.61;77.79;100136.03;5070863;28;20170;-75
2021/04/30 09:17:52;;;;;;;9.10;8.30;;;;;;;9.88;77.48;100135.06;5070828;28;20257;-77
2021/04/30 09:20:18;;;;;;;9.20;8.50;;;;;;;9.89;76.75;100142.13;5070559;28;20543;-77
2021/04/30 09:22:44;;;;;;;9.00;7.90;;;;;;;10.12;77.42;100132.72;5070961;28;20177;-75
2021/04/30 09:25:16;;;;;;;7.93;7.30;;;;;;;10.30;76.14;100130.13;5070626;28;20171;-74
2021/04/30 09:27:47;;;;;;;8.63;7.93;;;;;;;9.99;75.87;100141.06;5070510;28;20171;-75
2021/04/30 09:30:32;;;;;;;10.77;9.87;;;;;;;9.29;76.72;100139.06;5070535;28;20171;-78
2021/04/30 09:33:18;;;;;;;9.87;9.17;;;;;;;9.03;78.53;100145.09;5069959;28;20206;-77
2021/04/30 09:35:46;;;;;;;9.70;8.80;;;;;;;9.36;79.21;100125.78;5069129;28;20244;-73
2021/04/30 09:38:22;;;;;;;8.67;7.97;;;;;;;9.34;78.37;100133.47;5070450;28;20175;-80
2021/04/30 09:40:49;;;;;;;9.80;8.90;;;;;;;9.08;77.63;100130.56;5070281;28;20174;-74
2021/04/30 09:43:16;;;;;;;8.63;7.93;;;;;;;9.00;76.24;100137.56;5072521;28;20199;-74
2021/04/30 09:45:45;;;;;;;8.90;8.20;;;;;;;9.07;75.53;100127.00;5073414;28;20201;-74
2021/04/30 09:48:11;;;;;;;8.77;7.97;;;;;;;9.23;77.50;100136.44;5074217;28;20190;-74
2021/04/30 09:50:38;;;;;;;8.30;7.70;;;;;;;9.38;77.37;100129.00;5073929;28;20233;-75
2021/04/30 09:53:09;;;;;;;9.43;8.63;;;;;;;9.31;76.56;100137.63;5072457;28;20642;-74
2021/04/30 09:55:44;;;;;;;8.37;7.67;;;;;;;9.31;76.56;100137.63;5073551;28;20220;-74
2021/04/30 09:58:14;;;;;;;8.57;7.80;;;;;;;9.63;77.32;100149.38;5073416;28;20174;-74
2021/04/30 10:00:39;;;;;;;9.03;8.23;;;;;;;9.93;77.09;100148.56;5073737;28;20200;-74
2021/04/30 10:03:15;;;;;;;8.53;7.73;;;;;;;10.09;75.58;100143.50;5073330;28;20439;-74
2021/04/30 10:06:04;;;;;;;10.67;9.77;;;;;;;10.02;75.96;100141.22;5073340;28;20642;-74
2021/04/30 10:08:30;;;;;;;7.67;7.07;;;;;;;10.04;76.51;100138.19;5071964;28;20175;-78
2021/04/30 10:10:56;;;;;;;10.80;9.97;;;;;;;10.08;76.19;100139.16;5073259;28;20689;-74
2021/04/30 10:13:21;;;;;;;9.23;8.53;;;;;;;10.08;75.82;100142.69;5073266;28;20167;-74
2021/04/30 10:15:47;;;;;;;8.73;8.00;;;;;;;10.12;75.77;100142.84;5073265;28;20167;-74
2021/04/30 10:18:17;;;;;;;8.83;8.13;;;;;;;10.16;76.24;100143.03;5073157;28;20214;-75
2021/04/30 10:20:43;;;;;;;8.47;7.70;;;;;;;9.96;76.36;100144.41;5073448;28;20189;-74
2021/04/30 10:23:16;;;;;;;9.20;8.40;;;;;;;10.35;75.46;100151.81;5072973;28;20598;-73
2021/04/30 10:25:45;;;;;;;9.33;8.63;;;;;;;10.49;74.73;100146.22;5073183;28;20186;-74
2021/04/30 10:28:13;;;;;;;10.27;9.47;;;;;;;10.48;75.45;100147.34;5071769;28;20510;-77
2021/04/30 10:30:59;;;;;;;8.93;8.13;;;;;;;10.70;74.09;100147.22;5072148;28;20538;-75
2021/04/30 10:33:47;;;;;;;8.67;7.97;;;;;;;10.71;73.30;100149.66;5069653;28;20516;-74
2021/04/30 10:36:21;;;;;;;8.67;7.97;;;;;;;10.53;73.80;100141.72;5066543;28;20213;-75
2021/04/30 10:38:49;;;;;;;9.43;8.67;;;;;;;10.39;73.83;100150.03;5073040;28;20481;-82
2021/04/30 10:41:26;;;;;;;9.07;8.37;;;;;;;9.77;72.81;100150.91;5072823;28;20573;-75
2021/04/30 10:44:11;;;;;;;7.97;7.37;;;;;;;9.90;74.96;100151.13;5072791;28;20665;-74
2021/04/30 10:46:37;;;;;;;10.43;9.50;;;;;;;9.83;75.01;100148.81;5072932;28;20167;-73
2021/04/30 10:49:08;;;;;;;8.83;8.03;;;;;;;9.97;75.50;100149.53;5072709;28;20185;-74
2021/04/30 10:51:35;;;;;;;8.83;8.13;;;;;;;10.30;74.63;100154.69;5071296;28;20265;-78
2021/04/30 10:54:22;;;;;;;8.20;7.53;;;;;;;10.52;74.39;100151.03;5071235;28;20185;-76
2021/04/30 10:57:00;;;;;;;8.37;7.73;;;;;;;10.62;74.29;100148.03;5072809;28;20527;-75
2021/04/30 10:59:41;;;;;;;8.93;8.13;;;;;;;10.68;73.35;100155.72;5071143;28;21050;-74
2021/04/30 11:02:21;;;;;;;9.13;8.33;;;;;;;10.72;72.84;100159.44;5071156;28;20175;-76
2021/04/30 11:05:05;;;;;;;7.87;7.17;;;;;;;10.69;72.29;100160.06;5072182;28;20296;-76
2021/04/30 11:07:33;;;;;;;9.00;7.60;;;;;;;10.76;72.31;100148.69;5072217;28;20174;-75
2021/04/30 11:09:58;;;;;;;8.37;7.67;;;;;;;10.87;72.17;100155.44;5072244;28;20544;-74
2021/04/30 11:12:27;;;;;;;8.63;7.93;;;;;;;10.62;71.23;100154.28;5072323;28;20178;-79
2021/04/30 11:15:10;;;;;;;9.50;8.63;;;;;;;10.40;72.37;100162.56;5072298;28;20229;-75
2021/04/30 11:17:47;;;;;;;9.40;8.43;;;;;;;10.18;71.73;100165.38;5072255;28;20162;-75
2021/04/30 11:20:17;;;;;;;8.27;7.57;;;;;;;10.25;73.17;100163.81;5072076;28;20188;-77
2021/04/30 11:23:15;;;;;;;8.03;7.43;;;;;;;10.34;73.38;100164.66;5071988;28;20178;-73
2021/04/30 11:26:05;;;;;;;8.93;8.23;;;;;;;9.93;72.64;100158.66;5070726;28;20179;-78
2021/04/30 11:28:31;;;;;;;9.47;8.33;;;;;;;10.07;72.81;100167.56;5071785;28;20541;-75
2021/04/30 11:31:01;;;;;;;8.10;7.50;;;;;;;10.35;72.87;100165.47;5071811;28;20175;-76
2021/04/30 11:33:26;;;;;;;8.33;7.63;;;;;;;10.50;72.65;100162.28;5071814;28;20235;-75